Terminal Aerodrome Forecast
Issued by NWS

Home | Current Version | Previous Version | Text Only | Print | Product List | Glossary On
Versions: 1 2 3 4 5 6 7 8 9 10 11 12
000
FTUS42 TJSJ 262000 RRA
TAFISX
TAF
TISX 261950Z 2620/2718 09015G20KT P6SM VCSH FEW025 FEW040
     FM262300 10011KT P6SM FEW035
     FM271430 12016G22KT P6SM SCT030
      AMD NOT SKED=

USA.gov is the U.S. government's official web portal to all federal, state and local government web resources and services.